createdAt,value
2023-01-19T00:01:05.900Z,0.65
2023-01-19T00:06:07.947Z,0.67
2023-01-19T00:11:09.323Z,0.60
2023-01-19T00:16:11.240Z,0.58
2023-01-19T00:21:14.720Z,0.55
2023-01-19T00:26:16.553Z,0.34
2023-01-19T00:31:20.732Z,0.34
2023-01-19T00:36:22.227Z,0.46
2023-01-19T00:41:44.054Z,0.33
2023-01-19T00:46:45.453Z,0.35
2023-01-19T00:51:46.818Z,0.33
2023-01-19T00:56:48.334Z,0.32
2023-01-19T01:01:49.756Z,0.43
2023-01-19T01:06:51.204Z,0.37
2023-01-19T01:11:52.554Z,0.42
2023-01-19T01:16:54.994Z,0.51
2023-01-19T01:21:56.504Z,0.45
2023-01-19T01:26:57.927Z,0.42
2023-01-19T01:31:59.473Z,0.32
2023-01-19T01:37:00.882Z,0.24
2023-01-19T01:42:03.241Z,0.20
2023-01-19T01:47:04.745Z,0.25
2023-01-19T01:52:06.328Z,0.09
2023-01-19T01:57:12.289Z,0.10
2023-01-19T02:02:41.471Z,-0.14
2023-01-19T02:08:24.696Z,-0.02
2023-01-19T02:13:26.952Z,-0.19
2023-01-19T02:18:30.567Z,-0.07
2023-01-19T02:23:46.470Z,0.05
2023-01-19T02:29:02.883Z,0.09
2023-01-19T02:34:05.922Z,0.06
2023-01-19T02:39:09.672Z,0.24
2023-01-19T02:44:12.594Z,0.40
2023-01-19T02:49:14.154Z,0.43
2023-01-19T02:54:30.673Z,0.31
2023-01-19T02:59:43.967Z,0.37
2023-01-19T03:05:08.345Z,0.15
2023-01-19T03:10:33.122Z,0.22
2023-01-19T03:15:48.842Z,0.39
2023-01-19T03:20:55.141Z,0.31
2023-01-19T03:25:58.998Z,0.18
2023-01-19T03:31:10.932Z,0.31
2023-01-19T03:36:35.888Z,0.11
2023-01-19T03:41:40.855Z,0.07
2023-01-19T03:46:42.968Z,0.09
2023-01-19T03:51:44.633Z,-0.02
2023-01-19T03:56:46.040Z,0.01
2023-01-19T04:01:48.207Z,0.04
2023-01-19T04:06:49.674Z,-0.11
2023-01-19T04:11:51.451Z,0.10
2023-01-19T04:16:52.896Z,0.14
2023-01-19T04:21:56.785Z,0.23
2023-01-19T04:26:58.119Z,0.26
2023-01-19T04:31:59.445Z,0.36
2023-01-19T04:37:00.973Z,0.23
2023-01-19T04:42:02.355Z,0.33
2023-01-19T04:47:03.876Z,0.20
2023-01-19T04:52:06.142Z,0.28
2023-01-19T04:57:07.514Z,0.23
2023-01-19T05:02:08.957Z,0.08
2023-01-19T05:07:10.285Z,0.19
2023-01-19T05:12:12.236Z,0.16
2023-01-19T05:17:13.767Z,0.26
2023-01-19T05:22:15.591Z,0.31
2023-01-19T05:27:16.953Z,0.35
2023-01-19T05:32:18.519Z,0.45
2023-01-19T05:37:20.094Z,0.34
2023-01-19T05:42:21.607Z,0.24
2023-01-19T05:47:23.330Z,0.33
2023-01-19T05:52:27.579Z,0.37
2023-01-19T05:57:28.904Z,0.34
2023-01-19T06:02:30.301Z,0.34
2023-01-19T06:07:32.184Z,0.63
2023-01-19T06:12:33.773Z,0.75
2023-01-19T06:17:35.432Z,0.94
2023-01-19T06:22:36.795Z,0.76
2023-01-19T06:27:39.745Z,0.81
2023-01-19T06:32:41.188Z,0.79
2023-01-19T06:37:42.567Z,0.82
2023-01-19T06:42:43.958Z,0.96
2023-01-19T06:47:48.018Z,0.98
2023-01-19T06:52:51.223Z,0.88
2023-01-19T06:58:01.338Z,0.85
2023-01-19T07:03:03.426Z,0.72
2023-01-19T07:08:05.385Z,0.70
2023-01-19T07:13:09.445Z,0.69
2023-01-19T07:18:11.262Z,0.74
2023-01-19T07:23:12.721Z,0.91
2023-01-19T07:28:15.919Z,0.90
2023-01-19T07:33:17.315Z,0.75
2023-01-19T07:38:19.422Z,0.94
2023-01-19T07:43:20.945Z,1.12
2023-01-19T07:48:22.412Z,1.20
2023-01-19T07:53:23.850Z,0.97
2023-01-19T07:58:26.392Z,1.27
2023-01-19T08:03:27.735Z,1.15
2023-01-19T08:08:30.434Z,1.26
2023-01-19T08:13:31.932Z,1.33
2023-01-19T08:18:33.302Z,1.26
2023-01-19T08:23:34.910Z,1.54
2023-01-19T08:28:36.304Z,1.53
2023-01-19T08:33:37.659Z,1.65
2023-01-19T08:38:43.439Z,1.69
2023-01-19T08:43:45.520Z,1.75
2023-01-19T08:48:48.338Z,1.79
2023-01-19T08:53:50.212Z,1.89
2023-01-19T08:59:07.610Z,2.02
2023-01-19T09:04:09.878Z,2.64
2023-01-19T09:09:11.319Z,2.78
2023-01-19T09:14:12.966Z,2.59
2023-01-19T09:19:14.350Z,2.57
2023-01-19T09:24:15.714Z,2.65
2023-01-19T09:29:17.244Z,3.02
2023-01-19T09:34:18.588Z,3.07
2023-01-19T09:39:20.019Z,3.16
2023-01-19T09:44:33.833Z,3.44
2023-01-19T09:49:41.044Z,3.53
2023-01-19T09:54:52.984Z,3.79
2023-01-19T09:59:59.484Z,4.44
2023-01-19T10:05:14.524Z,4.91
2023-01-19T10:10:27.919Z,4.93
2023-01-19T10:15:41.985Z,5.05
2023-01-19T10:20:59.863Z,4.66
2023-01-19T10:26:08.390Z,4.58
2023-01-19T10:31:12.099Z,4.42
2023-01-19T10:36:24.273Z,4.18
2023-01-19T10:41:31.736Z,4.06
2023-01-19T10:46:42.223Z,3.74
2023-01-19T10:51:48.730Z,3.49
2023-01-19T10:57:03.466Z,3.40
2023-01-19T11:02:27.269Z,3.23
2023-01-19T11:07:31.078Z,3.25
2023-01-19T11:12:32.467Z,3.15
2023-01-19T11:17:33.957Z,3.12
2023-01-19T11:22:35.481Z,3.06
2023-01-19T11:27:37.774Z,3.32
2023-01-19T11:32:41.139Z,3.37
2023-01-19T11:37:43.168Z,3.39
2023-01-19T11:42:44.775Z,3.48
2023-01-19T11:47:50.250Z,3.62
2023-01-19T11:52:59.071Z,3.76
2023-01-19T11:58:02.496Z,3.61
2023-01-19T12:03:30.597Z,3.42
2023-01-19T12:08:39.531Z,3.31
2023-01-19T12:13:43.910Z,3.30
2023-01-19T12:18:51.666Z,3.44
2023-01-19T12:24:04.864Z,3.49
2023-01-19T12:29:15.279Z,3.49
2023-01-19T12:34:25.974Z,3.43
2023-01-19T12:39:27.481Z,3.39
2023-01-19T12:44:31.002Z,3.20
2023-01-19T12:49:35.491Z,3.24
2023-01-19T12:54:40.093Z,3.27
2023-01-19T12:59:41.435Z,3.23
2023-01-19T13:05:17.740Z,3.19
2023-01-19T13:11:10.689Z,3.15
2023-01-19T13:16:17.952Z,3.11
2023-01-19T13:21:44.630Z,3.03
2023-01-19T13:26:49.129Z,3.08
2023-01-19T13:31:53.551Z,2.94
2023-01-19T13:36:56.954Z,2.99
2023-01-19T13:42:02.691Z,3.01
2023-01-19T13:47:08.068Z,3.10
2023-01-19T13:52:24.288Z,3.17
2023-01-19T13:57:28.726Z,3.08
2023-01-19T14:02:30.259Z,3.05
2023-01-19T14:07:32.039Z,3.21
2023-01-19T14:12:33.362Z,3.11
2023-01-19T14:17:34.693Z,3.13
2023-01-19T14:22:41.576Z,3.18
2023-01-19T14:27:42.970Z,3.14
2023-01-19T14:32:47.736Z,3.18
2023-01-19T14:37:50.953Z,3.01
2023-01-19T14:42:55.304Z,3.04
2023-01-19T14:47:59.732Z,2.79
2023-01-19T14:53:04.362Z,2.70
2023-01-19T14:58:11.819Z,2.61
2023-01-19T15:03:13.285Z,2.47
2023-01-19T15:08:33.002Z,2.60
2023-01-19T15:13:34.473Z,2.78
2023-01-19T15:18:36.172Z,2.80
2023-01-19T15:23:37.492Z,2.45
2023-01-19T15:28:38.780Z,2.39
2023-01-19T15:33:40.656Z,2.43
2023-01-19T15:38:42.618Z,2.40
2023-01-19T15:43:44.051Z,2.43
2023-01-19T15:48:45.451Z,2.54
2023-01-19T15:53:47.699Z,2.55
2023-01-19T15:58:49.187Z,2.48
2023-01-19T16:03:52.063Z,2.43
2023-01-19T16:08:59.116Z,2.58
2023-01-19T16:14:01.256Z,2.58
2023-01-19T16:19:02.628Z,2.63
2023-01-19T16:24:04.156Z,2.44
2023-01-19T16:29:08.565Z,2.45
2023-01-19T16:34:10.171Z,2.47
2023-01-19T16:39:13.793Z,2.62
2023-01-19T16:44:16.342Z,2.39
2023-01-19T16:49:20.068Z,2.54
2023-01-19T16:54:25.849Z,2.68
2023-01-19T16:59:29.101Z,2.42
2023-01-19T17:04:30.806Z,2.62
2023-01-19T17:09:32.129Z,2.74
2023-01-19T17:14:33.493Z,2.72
2023-01-19T17:19:35.353Z,2.44
2023-01-19T17:24:36.735Z,2.26
2023-01-19T17:29:38.135Z,2.34
2023-01-19T17:34:39.445Z,2.32
2023-01-19T17:39:40.916Z,2.51
2023-01-19T17:44:42.371Z,2.58
2023-01-19T17:49:43.793Z,2.45
2023-01-19T17:54:45.185Z,2.45
2023-01-19T17:59:47.800Z,2.48
2023-01-19T18:04:49.265Z,2.38
2023-01-19T18:09:51.692Z,2.56
2023-01-19T18:14:52.998Z,2.43
2023-01-19T18:19:54.720Z,2.58
2023-01-19T18:24:56.156Z,2.76
2023-01-19T18:29:57.534Z,2.83
2023-01-19T18:34:58.955Z,2.85
2023-01-19T18:40:04.173Z,2.81
2023-01-19T18:45:05.777Z,2.77
2023-01-19T18:50:07.828Z,2.68
2023-01-19T18:55:09.545Z,2.69
2023-01-19T19:00:11.813Z,2.76
2023-01-19T19:05:13.404Z,2.74
2023-01-19T19:10:14.998Z,2.76
2023-01-19T19:15:16.696Z,2.55
2023-01-19T19:20:19.419Z,2.64
2023-01-19T19:25:21.092Z,2.64
2023-01-19T19:30:22.553Z,2.57
2023-01-19T19:35:24.187Z,2.67
2023-01-19T19:40:26.870Z,2.65
2023-01-19T19:45:28.253Z,2.70
2023-01-19T19:50:29.570Z,2.72
2023-01-19T19:55:30.964Z,2.60
2023-01-19T20:00:32.363Z,2.73
2023-01-19T20:05:35.617Z,2.62
2023-01-19T20:10:37.789Z,2.78
2023-01-19T20:15:39.482Z,2.72
2023-01-19T20:20:41.051Z,2.57
2023-01-19T20:25:42.407Z,2.43
2023-01-19T20:30:43.816Z,2.59
2023-01-19T20:35:45.119Z,2.48
2023-01-19T20:40:46.445Z,2.32
2023-01-19T20:45:48.375Z,2.16
2023-01-19T20:50:49.953Z,2.25
2023-01-19T20:55:51.251Z,2.19
2023-01-19T21:00:52.741Z,2.14
2023-01-19T21:05:54.138Z,1.92
2023-01-19T21:10:56.805Z,2.23
2023-01-19T21:15:59.577Z,2.20
2023-01-19T21:21:01.003Z,2.04
2023-01-19T21:26:02.469Z,2.03
2023-01-19T21:31:12.873Z,2.03
2023-01-19T21:36:14.210Z,2.01
2023-01-19T21:41:16.263Z,2.00
2023-01-19T21:46:29.126Z,2.15
2023-01-19T21:51:34.696Z,2.06
2023-01-19T21:56:38.353Z,2.06
2023-01-19T22:01:39.831Z,1.96
2023-01-19T22:06:41.347Z,1.90
2023-01-19T22:11:42.811Z,1.83
2023-01-19T22:16:44.159Z,2.10
2023-01-19T22:21:45.524Z,1.96
2023-01-19T22:26:50.038Z,1.90
2023-01-19T22:31:52.384Z,1.99
2023-01-19T22:36:53.855Z,2.02
2023-01-19T22:41:55.745Z,1.99
2023-01-19T22:46:57.174Z,1.79
2023-01-19T22:51:58.559Z,1.86
2023-01-19T22:57:00.004Z,1.91
2023-01-19T23:02:01.564Z,1.75
2023-01-19T23:07:02.988Z,1.57
2023-01-19T23:12:04.629Z,1.75
2023-01-19T23:17:06.192Z,1.73
2023-01-19T23:22:07.643Z,1.72
2023-01-19T23:27:09.406Z,1.69
2023-01-19T23:32:10.740Z,1.66
2023-01-19T23:37:12.362Z,1.58
2023-01-19T23:42:13.733Z,1.75
2023-01-19T23:47:15.086Z,1.74
2023-01-19T23:52:16.418Z,1.84
2023-01-19T23:57:17.901Z,1.85
